Terminal Aerodrome Forecast
Issued by NWS

Home | Current Version | Previous Version | Text Only | Print | Product List | Glossary On
Versions: 1 2 3 4 5 6 7 8 9 10 11 12 13 14 15 16 17
000
FTUS44 KLIX 011200 AAA
TAFMCB
TAF AMD
KMCB 011200Z 0112/0212 VRB03KT 6SM BR SKC
      TEMPO 0119/0122 VRB15G25KT 2SM TSRA BKN020CB OVC120
     FM020100 VRB03KT P6SM BKN080 OVC120
     FM021000 VRB03KT 3SM BR BKN003=

USA.gov is the U.S. government's official web portal to all federal, state and local government web resources and services.